Pinawa, Canada
Current Conditions -  °F | °C
As of 3:26 AM on Friday 19 Dec 2014 (Local Time) from CYWG Reporting Station
Freezing Drizzle Freezing Drizzle  
Wind Chill:   Ceiling: 600
Heat Index: 19°   Visibility: 2.5mi
Dew Point: 18°   Wind: 12mph
Humidity: 93%   Direction: 170°S
Pressure: 30.1"   Gusts: NA
Location:  50.15°N, 95.88°W
Report Text: CYWG 190926Z 17010KT 2 1/2SM -FZDZ BR OVC006 M07/M08 A3010 RMK ST8 CIG RAG SLP212
Loading
Personal Weather Stations






























Interactive Weather Map New forecast layout! Learn more

10-Day Weather Forecast

Advertisements
Track Severe Weather on mobile